Acme, Michigan
Current Conditions -  °F | °C
As of 12:53 AM on Sunday 23 Nov 2014 (Local Time) from KTVC Reporting Station
Haze Haze  
Wind Chill: 39°   Ceiling: 1700
Heat Index: 39°   Visibility: 2mi
Dew Point: 37°   Wind: 3mph
Humidity: 93%   Direction: 150°SSE
Pressure: 29.8"   Gusts: NA
Location:  44.77°N, 85.5°W
Report Text: KTVC 230553Z AUTO 15003KT 2SM BR FEW009 OVC017 04/03 A2980 RMK AO2 SLP097 T00390028 10050 20033 56003
Loading
Personal Weather Stations






























Interactive Weather Map New forecast layout! Learn more

10-Day Weather Forecast

Advertisements
Track Severe Weather on mobile